sensor_id;sensor_type;location;lat;lon;timestamp;temperature;humidity
71177;DHT22;58877;51.992;4.504;2023-01-10T00:01:11;8.50;75.86
71177;DHT22;58877;51.992;4.504;2023-01-10T00:03:40;8.46;76.09
71177;DHT22;58877;51.992;4.504;2023-01-10T00:06:09;8.45;76.20
71177;DHT22;58877;51.992;4.504;2023-01-10T00:08:35;8.46;75.99
71177;DHT22;58877;51.992;4.504;2023-01-10T00:11:01;8.50;75.90
71177;DHT22;58877;51.992;4.504;2023-01-10T00:13:47;8.56;75.74
71177;DHT22;58877;51.992;4.504;2023-01-10T00:16:13;8.54;75.70
71177;DHT22;58877;51.992;4.504;2023-01-10T00:18:39;8.57;75.93
71177;DHT22;58877;51.992;4.504;2023-01-10T00:21:05;8.53;75.92
71177;DHT22;58877;51.992;4.504;2023-01-10T00:23:33;8.57;76.19
71177;DHT22;58877;51.992;4.504;2023-01-10T00:26:00;8.54;76.17
71177;DHT22;58877;51.992;4.504;2023-01-10T00:28:27;8.54;75.91
71177;DHT22;58877;51.992;4.504;2023-01-10T00:30:54;8.60;75.88
71177;DHT22;58877;51.992;4.504;2023-01-10T00:33:24;8.56;76.02
71177;DHT22;58877;51.992;4.504;2023-01-10T00:35:53;8.67;75.88
71177;DHT22;58877;51.992;4.504;2023-01-10T00:38:19;8.67;75.80
71177;DHT22;58877;51.992;4.504;2023-01-10T00:40:45;8.77;75.52
71177;DHT22;58877;51.992;4.504;2023-01-10T00:43:11;8.74;75.19
71177;DHT22;58877;51.992;4.504;2023-01-10T00:45:55;8.73;75.37
71177;DHT22;58877;51.992;4.504;2023-01-10T00:48:22;8.70;75.49
71177;DHT22;58877;51.992;4.504;2023-01-10T00:50:48;8.76;75.32
71177;DHT22;58877;51.992;4.504;2023-01-10T00:53:13;8.76;75.30
71177;DHT22;58877;51.992;4.504;2023-01-10T00:55:39;8.81;75.27
71177;DHT22;58877;51.992;4.504;2023-01-10T00:58:05;8.79;75.20
71177;DHT22;58877;51.992;4.504;2023-01-10T01:00:31;8.81;75.25
71177;DHT22;58877;51.992;4.504;2023-01-10T01:02:56;8.74;75.29
71177;DHT22;58877;51.992;4.504;2023-01-10T01:05:25;8.83;75.28
71177;DHT22;58877;51.992;4.504;2023-01-10T01:07:51;8.84;75.27
71177;DHT22;58877;51.992;4.504;2023-01-10T01:10:18;8.87;75.08
71177;DHT22;58877;51.992;4.504;2023-01-10T01:12:55;8.81;75.24
71177;DHT22;58877;51.992;4.504;2023-01-10T01:15:21;8.74;75.28
71177;DHT22;58877;51.992;4.504;2023-01-10T01:17:47;8.77;75.39
71177;DHT22;58877;51.992;4.504;2023-01-10T01:20:13;8.79;75.39
71177;DHT22;58877;51.992;4.504;2023-01-10T01:22:40;8.77;75.40
71177;DHT22;58877;51.992;4.504;2023-01-10T01:25:06;8.80;75.43
71177;DHT22;58877;51.992;4.504;2023-01-10T01:27:31;8.83;75.36
71177;DHT22;58877;51.992;4.504;2023-01-10T01:29:57;8.77;75.67
71177;DHT22;58877;51.992;4.504;2023-01-10T01:32:23;8.80;75.52
71177;DHT22;58877;51.992;4.504;2023-01-10T01:34:48;8.85;75.72
71177;DHT22;58877;51.992;4.504;2023-01-10T01:37:14;8.88;75.65
71177;DHT22;58877;51.992;4.504;2023-01-10T01:39:40;8.81;75.88
71177;DHT22;58877;51.992;4.504;2023-01-10T01:42:20;8.76;76.16
71177;DHT22;58877;51.992;4.504;2023-01-10T01:50:04;8.76;76.05
71177;DHT22;58877;51.992;4.504;2023-01-10T01:52:33;8.74;76.04
71177;DHT22;58877;51.992;4.504;2023-01-10T01:55:04;8.77;75.96
71177;DHT22;58877;51.992;4.504;2023-01-10T01:57:32;8.79;75.99
71177;DHT22;58877;51.992;4.504;2023-01-10T02:00:01;8.80;75.85
71177;DHT22;58877;51.992;4.504;2023-01-10T02:02:37;8.79;75.80
71177;DHT22;58877;51.992;4.504;2023-01-10T02:05:09;8.81;75.86
71177;DHT22;58877;51.992;4.504;2023-01-10T02:07:40;8.81;75.68
71177;DHT22;58877;51.992;4.504;2023-01-10T02:11:04;8.88;75.75
71177;DHT22;58877;51.992;4.504;2023-01-10T02:13:05;8.81;75.83
71177;DHT22;58877;51.992;4.504;2023-01-10T02:15:32;8.79;75.64
71177;DHT22;58877;51.992;4.504;2023-01-10T02:17:59;8.83;75.68
71177;DHT22;58877;51.992;4.504;2023-01-10T02:20:32;8.79;75.72
71177;DHT22;58877;51.992;4.504;2023-01-10T02:43:16;8.73;76.16
71177;DHT22;58877;51.992;4.504;2023-01-10T02:45:58;8.70;76.35
71177;DHT22;58877;51.992;4.504;2023-01-10T02:48:25;8.79;76.39
71177;DHT22;58877;51.992;4.504;2023-01-10T02:51:07;8.70;76.07
71177;DHT22;58877;51.992;4.504;2023-01-10T02:53:44;8.74;75.97
71177;DHT22;58877;51.992;4.504;2023-01-10T02:56:27;8.80;76.23
71177;DHT22;58877;51.992;4.504;2023-01-10T03:04:57;8.77;76.42
71177;DHT22;58877;51.992;4.504;2023-01-10T03:07:54;8.79;76.82
71177;DHT22;58877;51.992;4.504;2023-01-10T03:10:40;8.64;77.75
71177;DHT22;58877;51.992;4.504;2023-01-10T03:15:47;8.56;78.57
71177;DHT22;58877;51.992;4.504;2023-01-10T03:18:24;8.50;78.25
71177;DHT22;58877;51.992;4.504;2023-01-10T03:20:53;8.50;78.13
71177;DHT22;58877;51.992;4.504;2023-01-10T03:23:22;8.53;78.01
71177;DHT22;58877;51.992;4.504;2023-01-10T03:25:51;8.47;77.90
71177;DHT22;58877;51.992;4.504;2023-01-10T03:28:45;8.50;77.79
71177;DHT22;58877;51.992;4.504;2023-01-10T03:32:01;8.45;77.67
71177;DHT22;58877;51.992;4.504;2023-01-10T03:34:08;8.49;77.84
71177;DHT22;58877;51.992;4.504;2023-01-10T03:39:33;8.37;78.13
71177;DHT22;58877;51.992;4.504;2023-01-10T03:45:33;8.40;78.28
71177;DHT22;58877;51.992;4.504;2023-01-10T03:48:03;8.39;78.21
71177;DHT22;58877;51.992;4.504;2023-01-10T03:50:29;8.39;78.39
71177;DHT22;58877;51.992;4.504;2023-01-10T03:52:56;8.42;77.91
71177;DHT22;58877;51.992;4.504;2023-01-10T03:55:26;8.37;77.86
71177;DHT22;58877;51.992;4.504;2023-01-10T03:57:52;8.40;77.50
71177;DHT22;58877;51.992;4.504;2023-01-10T04:00:18;8.45;77.52
71177;DHT22;58877;51.992;4.504;2023-01-10T04:02:44;8.52;77.45
71177;DHT22;58877;51.992;4.504;2023-01-10T04:05:11;8.49;77.41
71177;DHT22;58877;51.992;4.504;2023-01-10T04:07:36;8.50;77.42
71177;DHT22;58877;51.992;4.504;2023-01-10T04:10:06;8.50;77.63
71177;DHT22;58877;51.992;4.504;2023-01-10T04:12:32;8.43;77.70
71177;DHT22;58877;51.992;4.504;2023-01-10T04:14:57;8.36;77.73
71177;DHT22;58877;51.992;4.504;2023-01-10T04:17:23;8.33;78.07
71177;DHT22;58877;51.992;4.504;2023-01-10T04:19:48;8.33;78.10
71177;DHT22;58877;51.992;4.504;2023-01-10T04:22:14;8.22;78.56
71177;DHT22;58877;51.992;4.504;2023-01-10T04:24:40;8.21;78.79
71177;DHT22;58877;51.992;4.504;2023-01-10T04:27:06;8.07;79.18
71177;DHT22;58877;51.992;4.504;2023-01-10T04:29:31;8.10;79.08
71177;DHT22;58877;51.992;4.504;2023-01-10T04:31:57;8.10;79.17
71177;DHT22;58877;51.992;4.504;2023-01-10T04:34:23;8.13;79.28
71177;DHT22;58877;51.992;4.504;2023-01-10T04:36:48;8.12;79.38
71177;DHT22;58877;51.992;4.504;2023-01-10T04:39:15;8.16;79.35
71177;DHT22;58877;51.992;4.504;2023-01-10T04:41:41;8.16;79.50
71177;DHT22;58877;51.992;4.504;2023-01-10T04:44:07;8.22;79.31
71177;DHT22;58877;51.992;4.504;2023-01-10T04:46:33;8.26;78.94
71177;DHT22;58877;51.992;4.504;2023-01-10T04:48:59;8.29;78.83
71177;DHT22;58877;51.992;4.504;2023-01-10T04:51:26;8.22;78.93
71177;DHT22;58877;51.992;4.504;2023-01-10T04:53:52;8.15;78.89
71177;DHT22;58877;51.992;4.504;2023-01-10T04:56:19;8.09;79.07
71177;DHT22;58877;51.992;4.504;2023-01-10T04:58:46;7.98;79.61
71177;DHT22;58877;51.992;4.504;2023-01-10T05:01:18;8.02;79.69
71177;DHT22;58877;51.992;4.504;2023-01-10T05:03:51;8.02;79.37
71177;DHT22;58877;51.992;4.504;2023-01-10T05:06:19;7.91;79.84
71177;DHT22;58877;51.992;4.504;2023-01-10T05:08:45;7.89;80.18
71177;DHT22;58877;51.992;4.504;2023-01-10T05:11:11;7.79;80.24
71177;DHT22;58877;51.992;4.504;2023-01-10T05:13:37;7.70;80.87
71177;DHT22;58877;51.992;4.504;2023-01-10T05:16:03;7.61;81.00
71177;DHT22;58877;51.992;4.504;2023-01-10T05:18:29;7.64;80.95
71177;DHT22;58877;51.992;4.504;2023-01-10T05:21:03;7.61;81.10
71177;DHT22;58877;51.992;4.504;2023-01-10T05:23:29;7.61;81.14
71177;DHT22;58877;51.992;4.504;2023-01-10T05:25:55;7.58;81.17
71177;DHT22;58877;51.992;4.504;2023-01-10T05:28:21;7.58;81.03
71177;DHT22;58877;51.992;4.504;2023-01-10T05:30:46;7.54;80.91
71177;DHT22;58877;51.992;4.504;2023-01-10T05:33:12;7.55;80.80
71177;DHT22;58877;51.992;4.504;2023-01-10T05:35:37;7.52;80.88
71177;DHT22;58877;51.992;4.504;2023-01-10T05:38:03;7.50;80.91
71177;DHT22;58877;51.992;4.504;2023-01-10T05:40:28;7.57;80.77
71177;DHT22;58877;51.992;4.504;2023-01-10T05:42:54;7.62;80.56
71177;DHT22;58877;51.992;4.504;2023-01-10T05:45:20;7.67;80.48
71177;DHT22;58877;51.992;4.504;2023-01-10T05:47:46;7.72;80.31
71177;DHT22;58877;51.992;4.504;2023-01-10T05:50:11;7.72;80.41
71177;DHT22;58877;51.992;4.504;2023-01-10T05:52:37;7.75;80.56
71177;DHT22;58877;51.992;4.504;2023-01-10T05:55:03;7.75;80.63
71177;DHT22;58877;51.992;4.504;2023-01-10T05:57:29;7.68;81.14
71177;DHT22;58877;51.992;4.504;2023-01-10T05:59:54;7.62;81.26
71177;DHT22;58877;51.992;4.504;2023-01-10T06:02:20;7.71;81.12
71177;DHT22;58877;51.992;4.504;2023-01-10T06:04:46;7.64;81.26
71177;DHT22;58877;51.992;4.504;2023-01-10T06:07:12;7.62;81.67
71177;DHT22;58877;51.992;4.504;2023-01-10T06:09:37;7.62;81.63
71177;DHT22;58877;51.992;4.504;2023-01-10T06:12:03;7.57;81.63
71177;DHT22;58877;51.992;4.504;2023-01-10T06:14:29;7.58;81.66
71177;DHT22;58877;51.992;4.504;2023-01-10T06:16:54;7.61;81.65
71177;DHT22;58877;51.992;4.504;2023-01-10T06:19:20;7.64;81.30
71177;DHT22;58877;51.992;4.504;2023-01-10T06:21:45;7.81;80.90
71177;DHT22;58877;51.992;4.504;2023-01-10T06:24:11;7.82;80.63
71177;DHT22;58877;51.992;4.504;2023-01-10T06:26:37;7.79;80.77
71177;DHT22;58877;51.992;4.504;2023-01-10T06:29:02;7.85;80.59
71177;DHT22;58877;51.992;4.504;2023-01-10T06:31:28;7.89;80.72
71177;DHT22;58877;51.992;4.504;2023-01-10T06:33:54;7.88;80.78
71177;DHT22;58877;51.992;4.504;2023-01-10T06:36:19;7.91;80.82
71177;DHT22;58877;51.992;4.504;2023-01-10T06:38:52;7.84;81.11
71177;DHT22;58877;51.992;4.504;2023-01-10T06:41:18;7.93;81.16
71177;DHT22;58877;51.992;4.504;2023-01-10T06:43:45;8.01;81.11
71177;DHT22;58877;51.992;4.504;2023-01-10T06:46:12;8.07;81.10
71177;DHT22;58877;51.992;4.504;2023-01-10T06:48:40;8.17;81.08
71177;DHT22;58877;51.992;4.504;2023-01-10T06:53:43;8.26;80.92
71177;DHT22;58877;51.992;4.504;2023-01-10T06:56:09;8.28;81.04
71177;DHT22;58877;51.992;4.504;2023-01-10T06:58:36;8.37;80.59
71177;DHT22;58877;51.992;4.504;2023-01-10T07:01:11;8.46;80.37
71177;DHT22;58877;51.992;4.504;2023-01-10T07:03:40;8.39;80.58
71177;DHT22;58877;51.992;4.504;2023-01-10T07:06:10;8.39;80.67
71177;DHT22;58877;51.992;4.504;2023-01-10T07:08:42;8.47;80.40
71177;DHT22;58877;51.992;4.504;2023-01-10T07:11:10;8.43;80.45
71177;DHT22;58877;51.992;4.504;2023-01-10T07:13:46;8.42;80.64
71177;DHT22;58877;51.992;4.504;2023-01-10T07:16:15;8.50;80.53
71177;DHT22;58877;51.992;4.504;2023-01-10T07:18:42;8.50;80.36
71177;DHT22;58877;51.992;4.504;2023-01-10T07:21:09;8.43;80.62
71177;DHT22;58877;51.992;4.504;2023-01-10T07:23:35;8.45;80.24
71177;DHT22;58877;51.992;4.504;2023-01-10T07:26:04;8.43;80.24
71177;DHT22;58877;51.992;4.504;2023-01-10T07:28:34;8.36;80.22
71177;DHT22;58877;51.992;4.504;2023-01-10T07:31:02;8.32;80.38
71177;DHT22;58877;51.992;4.504;2023-01-10T07:33:35;8.33;80.50
71177;DHT22;58877;51.992;4.504;2023-01-10T07:36:02;8.29;80.71
71177;DHT22;58877;51.992;4.504;2023-01-10T07:38:31;8.26;80.85
71177;DHT22;58877;51.992;4.504;2023-01-10T07:41:00;8.21;80.89
71177;DHT22;58877;51.992;4.504;2023-01-10T07:43:27;8.15;80.89
71177;DHT22;58877;51.992;4.504;2023-01-10T07:45:53;7.99;81.32
71177;DHT22;58877;51.992;4.504;2023-01-10T07:48:19;7.93;81.31
71177;DHT22;58877;51.992;4.504;2023-01-10T07:50:45;7.91;81.59
71177;DHT22;58877;51.992;4.504;2023-01-10T07:53:10;7.89;81.59
71177;DHT22;58877;51.992;4.504;2023-01-10T07:55:36;7.81;81.74
71177;DHT22;58877;51.992;4.504;2023-01-10T07:58:11;7.77;81.86
71177;DHT22;58877;51.992;4.504;2023-01-10T08:00:37;7.70;81.90
71177;DHT22;58877;51.992;4.504;2023-01-10T08:03:03;7.71;81.90
71177;DHT22;58877;51.992;4.504;2023-01-10T08:05:30;7.67;81.95
71177;DHT22;58877;51.992;4.504;2023-01-10T08:07:56;7.65;81.97
71177;DHT22;58877;51.992;4.504;2023-01-10T08:10:25;7.68;81.95
71177;DHT22;58877;51.992;4.504;2023-01-10T08:12:51;7.68;81.86
71177;DHT22;58877;51.992;4.504;2023-01-10T08:15:17;7.65;81.88
71177;DHT22;58877;51.992;4.504;2023-01-10T08:17:43;7.65;81.83
71177;DHT22;58877;51.992;4.504;2023-01-10T08:20:09;7.61;81.87
71177;DHT22;58877;51.992;4.504;2023-01-10T08:22:35;7.55;81.95
71177;DHT22;58877;51.992;4.504;2023-01-10T08:25:01;7.51;82.05
71177;DHT22;58877;51.992;4.504;2023-01-10T08:27:27;7.57;81.87
71177;DHT22;58877;51.992;4.504;2023-01-10T08:29:53;7.54;81.98
71177;DHT22;58877;51.992;4.504;2023-01-10T08:32:19;7.52;81.97
71177;DHT22;58877;51.992;4.504;2023-01-10T08:34:44;7.50;81.97
71177;DHT22;58877;51.992;4.504;2023-01-10T08:37:12;7.54;81.95
71177;DHT22;58877;51.992;4.504;2023-01-10T08:39:39;7.57;81.86
71177;DHT22;58877;51.992;4.504;2023-01-10T08:42:05;7.58;81.80
71177;DHT22;58877;51.992;4.504;2023-01-10T08:44:30;7.64;81.78
71177;DHT22;58877;51.992;4.504;2023-01-10T08:46:56;7.70;81.47
71177;DHT22;58877;51.992;4.504;2023-01-10T08:49:29;7.65;81.39
71177;DHT22;58877;51.992;4.504;2023-01-10T08:51:55;7.65;81.46
71177;DHT22;58877;51.992;4.504;2023-01-10T08:54:24;7.67;81.50
71177;DHT22;58877;51.992;4.504;2023-01-10T08:56:50;7.74;81.24
71177;DHT22;58877;51.992;4.504;2023-01-10T08:59:17;7.62;81.48
71177;DHT22;58877;51.992;4.504;2023-01-10T09:01:43;7.65;81.41
71177;DHT22;58877;51.992;4.504;2023-01-10T09:04:08;7.68;81.45
71177;DHT22;58877;51.992;4.504;2023-01-10T09:06:35;7.67;81.42
71177;DHT22;58877;51.992;4.504;2023-01-10T09:09:03;7.68;81.43
71177;DHT22;58877;51.992;4.504;2023-01-10T09:11:29;7.58;81.44
71177;DHT22;58877;51.992;4.504;2023-01-10T09:13:58;7.64;81.35
71177;DHT22;58877;51.992;4.504;2023-01-10T09:16:23;7.61;81.46
71177;DHT22;58877;51.992;4.504;2023-01-10T09:18:49;7.58;81.49
71177;DHT22;58877;51.992;4.504;2023-01-10T09:21:16;7.61;81.16
71177;DHT22;58877;51.992;4.504;2023-01-10T09:23:42;7.57;81.21
71177;DHT22;58877;51.992;4.504;2023-01-10T09:26:08;7.67;81.13
71177;DHT22;58877;51.992;4.504;2023-01-10T09:28:35;7.75;80.76
71177;DHT22;58877;51.992;4.504;2023-01-10T09:31:01;7.79;80.45
71177;DHT22;58877;51.992;4.504;2023-01-10T09:33:29;7.77;80.43
71177;DHT22;58877;51.992;4.504;2023-01-10T09:35:58;7.85;80.21
71177;DHT22;58877;51.992;4.504;2023-01-10T09:38:24;7.81;80.11
71177;DHT22;58877;51.992;4.504;2023-01-10T09:41:15;7.72;80.46
71177;DHT22;58877;51.992;4.504;2023-01-10T09:47:01;7.64;80.26
71177;DHT22;58877;51.992;4.504;2023-01-10T09:49:38;7.61;80.29
71177;DHT22;58877;51.992;4.504;2023-01-10T09:52:32;7.60;80.26
71177;DHT22;58877;51.992;4.504;2023-01-10T09:55:13;7.51;80.31
71177;DHT22;58877;51.992;4.504;2023-01-10T09:57:40;7.52;80.09
71177;DHT22;58877;51.992;4.504;2023-01-10T10:00:08;7.58;79.96
71177;DHT22;58877;51.992;4.504;2023-01-10T10:02:44;7.64;79.47
71177;DHT22;58877;51.992;4.504;2023-01-10T10:05:20;7.57;79.22
71177;DHT22;58877;51.992;4.504;2023-01-10T10:07:58;7.62;79.20
71177;DHT22;58877;51.992;4.504;2023-01-10T10:10:54;7.58;78.95
71177;DHT22;58877;51.992;4.504;2023-01-10T10:16:25;7.60;78.59
71177;DHT22;58877;51.992;4.504;2023-01-10T10:27:23;7.61;78.22
71177;DHT22;58877;51.992;4.504;2023-01-10T10:36:11;7.54;78.52
71177;DHT22;58877;51.992;4.504;2023-01-10T10:38:44;7.61;78.54
71177;DHT22;58877;51.992;4.504;2023-01-10T10:43:53;7.61;78.79
71177;DHT22;58877;51.992;4.504;2023-01-10T10:46:20;7.68;78.63
71177;DHT22;58877;51.992;4.504;2023-01-10T10:51:25;7.75;78.19
71177;DHT22;58877;51.992;4.504;2023-01-10T10:53:52;7.71;78.66
71177;DHT22;58877;51.992;4.504;2023-01-10T10:56:23;7.89;78.59
71177;DHT22;58877;51.992;4.504;2023-01-10T10:58:53;7.88;78.38
71177;DHT22;58877;51.992;4.504;2023-01-10T11:01:21;7.96;78.49
71177;DHT22;58877;51.992;4.504;2023-01-10T11:06:24;8.13;78.05
71177;DHT22;58877;51.992;4.504;2023-01-10T11:08:55;8.19;77.73
71177;DHT22;58877;51.992;4.504;2023-01-10T11:11:31;8.17;77.66
71177;DHT22;58877;51.992;4.504;2023-01-10T11:14:02;8.25;77.67
71177;DHT22;58877;51.992;4.504;2023-01-10T11:16:31;8.19;77.85
71177;DHT22;58877;51.992;4.504;2023-01-10T11:19:14;8.26;77.76
71177;DHT22;58877;51.992;4.504;2023-01-10T11:22:01;8.26;77.81
71177;DHT22;58877;51.992;4.504;2023-01-10T11:24:52;8.30;77.86
71177;DHT22;58877;51.992;4.504;2023-01-10T11:27:26;8.37;77.69
71177;DHT22;58877;51.992;4.504;2023-01-10T11:30:02;8.32;77.47
71177;DHT22;58877;51.992;4.504;2023-01-10T11:32:33;8.25;77.80
71177;DHT22;58877;51.992;4.504;2023-01-10T11:35:22;8.21;78.05
71177;DHT22;58877;51.992;4.504;2023-01-10T11:38:18;8.19;78.34
71177;DHT22;58877;51.992;4.504;2023-01-10T11:40:55;8.29;78.13
71177;DHT22;58877;51.992;4.504;2023-01-10T11:43:33;8.35;77.97
71177;DHT22;58877;51.992;4.504;2023-01-10T11:46:11;8.32;77.98
71177;DHT22;58877;51.992;4.504;2023-01-10T11:48:59;8.37;77.96
71177;DHT22;58877;51.992;4.504;2023-01-10T11:51:30;8.40;77.84
71177;DHT22;58877;51.992;4.504;2023-01-10T11:54:01;8.40;77.79
71177;DHT22;58877;51.992;4.504;2023-01-10T11:56:31;8.32;78.00
71177;DHT22;58877;51.992;4.504;2023-01-10T11:59:16;8.40;78.19
71177;DHT22;58877;51.992;4.504;2023-01-10T12:04:16;8.46;77.56
71177;DHT22;58877;51.992;4.504;2023-01-10T12:06:56;8.59;77.41
71177;DHT22;58877;51.992;4.504;2023-01-10T12:12:15;8.49;77.65
71177;DHT22;58877;51.992;4.504;2023-01-10T12:14:41;8.47;77.71
71177;DHT22;58877;51.992;4.504;2023-01-10T12:17:22;8.52;77.63
71177;DHT22;58877;51.992;4.504;2023-01-10T12:19:50;8.54;77.60
71177;DHT22;58877;51.992;4.504;2023-01-10T12:22:24;8.52;77.54
71177;DHT22;58877;51.992;4.504;2023-01-10T12:24:53;8.60;77.35
71177;DHT22;58877;51.992;4.504;2023-01-10T12:27:22;8.59;77.26
71177;DHT22;58877;51.992;4.504;2023-01-10T12:30:10;8.61;77.36
71177;DHT22;58877;51.992;4.504;2023-01-10T12:32:44;8.67;77.22
71177;DHT22;58877;51.992;4.504;2023-01-10T12:35:17;8.61;77.33
71177;DHT22;58877;51.992;4.504;2023-01-10T12:38:05;8.52;77.42
71177;DHT22;58877;51.992;4.504;2023-01-10T12:40:59;8.49;77.87
71177;DHT22;58877;51.992;4.504;2023-01-10T12:43:39;8.43;77.79
71177;DHT22;58877;51.992;4.504;2023-01-10T12:46:39;8.46;77.93
71177;DHT22;58877;51.992;4.504;2023-01-10T12:51:53;8.53;77.89
71177;DHT22;58877;51.992;4.504;2023-01-10T12:54:26;8.64;77.69
71177;DHT22;58877;51.992;4.504;2023-01-10T12:56:57;8.67;77.97
71177;DHT22;58877;51.992;4.504;2023-01-10T12:59:30;8.60;78.31
71177;DHT22;58877;51.992;4.504;2023-01-10T13:02:06;8.64;78.40
71177;DHT22;58877;51.992;4.504;2023-01-10T13:08:43;8.56;79.53
71177;DHT22;58877;51.992;4.504;2023-01-10T13:25:53;8.13;82.65
71177;DHT22;58877;51.992;4.504;2023-01-10T13:28:23;8.09;82.72
71177;DHT22;58877;51.992;4.504;2023-01-10T13:30:52;8.07;82.78
71177;DHT22;58877;51.992;4.504;2023-01-10T13:35:45;8.02;83.21
71177;DHT22;58877;51.992;4.504;2023-01-10T13:38:35;7.99;83.38
71177;DHT22;58877;51.992;4.504;2023-01-10T13:41:05;7.95;83.75
71177;DHT22;58877;51.992;4.504;2023-01-10T13:56:41;7.89;84.66
71177;DHT22;58877;51.992;4.504;2023-01-10T14:02:23;7.91;84.95
71177;DHT22;58877;51.992;4.504;2023-01-10T14:05:06;7.89;85.08
71177;DHT22;58877;51.992;4.504;2023-01-10T14:10:25;7.79;85.31
71177;DHT22;58877;51.992;4.504;2023-01-10T14:13:02;7.82;85.61
71177;DHT22;58877;51.992;4.504;2023-01-10T14:15:43;7.81;85.58
71177;DHT22;58877;51.992;4.504;2023-01-10T14:18:21;7.85;85.75
71177;DHT22;58877;51.992;4.504;2023-01-10T14:21:20;7.68;86.02
71177;DHT22;58877;51.992;4.504;2023-01-10T14:23:50;7.65;86.35
71177;DHT22;58877;51.992;4.504;2023-01-10T14:26:30;7.67;86.61
71177;DHT22;58877;51.992;4.504;2023-01-10T14:28:59;7.68;86.61
71177;DHT22;58877;51.992;4.504;2023-01-10T14:31:30;7.72;86.66
71177;DHT22;58877;51.992;4.504;2023-01-10T14:33:57;7.61;86.66
71177;DHT22;58877;51.992;4.504;2023-01-10T14:36:28;7.61;87.16
71177;DHT22;58877;51.992;4.504;2023-01-10T14:38:58;7.58;87.23
71177;DHT22;58877;51.992;4.504;2023-01-10T14:41:37;7.58;87.47
71177;DHT22;58877;51.992;4.504;2023-01-10T14:44:14;7.51;87.51
71177;DHT22;58877;51.992;4.504;2023-01-10T14:46:52;7.48;87.65
71177;DHT22;58877;51.992;4.504;2023-01-10T14:49:32;7.52;87.79
71177;DHT22;58877;51.992;4.504;2023-01-10T14:52:20;7.60;87.63
71177;DHT22;58877;51.992;4.504;2023-01-10T14:54:54;7.55;87.54
71177;DHT22;58877;51.992;4.504;2023-01-10T14:57:22;7.54;87.84
71177;DHT22;58877;51.992;4.504;2023-01-10T14:59:50;7.48;87.94
71177;DHT22;58877;51.992;4.504;2023-01-10T15:02:21;7.47;88.06
71177;DHT22;58877;51.992;4.504;2023-01-10T15:05:00;7.41;88.45
71177;DHT22;58877;51.992;4.504;2023-01-10T15:07:32;7.48;88.33
71177;DHT22;58877;51.992;4.504;2023-01-10T15:09:59;7.40;88.50
71177;DHT22;58877;51.992;4.504;2023-01-10T15:12:34;7.43;88.47
71177;DHT22;58877;51.992;4.504;2023-01-10T15:15:05;7.48;88.58
71177;DHT22;58877;51.992;4.504;2023-01-10T15:17:33;7.47;88.52
71177;DHT22;58877;51.992;4.504;2023-01-10T15:20:02;7.41;88.83
71177;DHT22;58877;51.992;4.504;2023-01-10T15:22:31;7.47;88.80
71177;DHT22;58877;51.992;4.504;2023-01-10T15:27:31;7.47;88.86
71177;DHT22;58877;51.992;4.504;2023-01-10T15:29:57;7.50;88.95
71177;DHT22;58877;51.992;4.504;2023-01-10T15:32:31;7.50;88.92
71177;DHT22;58877;51.992;4.504;2023-01-10T15:35:00;7.43;89.18
71177;DHT22;58877;51.992;4.504;2023-01-10T15:37:33;7.43;89.30
71177;DHT22;58877;51.992;4.504;2023-01-10T15:40:07;7.38;89.65
71177;DHT22;58877;51.992;4.504;2023-01-10T15:42:43;7.47;89.62
71177;DHT22;58877;51.992;4.504;2023-01-10T15:45:26;7.48;89.57
71177;DHT22;58877;51.992;4.504;2023-01-10T15:47:53;7.54;89.46
71177;DHT22;58877;51.992;4.504;2023-01-10T15:50:36;7.52;89.49
71177;DHT22;58877;51.992;4.504;2023-01-10T15:53:10;7.47;89.72
71177;DHT22;58877;51.992;4.504;2023-01-10T15:55:52;7.47;89.78
71177;DHT22;58877;51.992;4.504;2023-01-10T15:58:33;7.41;90.04
71177;DHT22;58877;51.992;4.504;2023-01-10T16:01:01;7.48;89.96
71177;DHT22;58877;51.992;4.504;2023-01-10T16:03:38;7.51;90.13
71177;DHT22;58877;51.992;4.504;2023-01-10T16:06:05;7.54;89.87
71177;DHT22;58877;51.992;4.504;2023-01-10T16:08:37;7.58;89.97
71177;DHT22;58877;51.992;4.504;2023-01-10T16:11:20;7.52;90.10
71177;DHT22;58877;51.992;4.504;2023-01-10T16:14:07;7.57;90.12
71177;DHT22;58877;51.992;4.504;2023-01-10T16:16:33;7.61;89.99
71177;DHT22;58877;51.992;4.504;2023-01-10T16:18:59;7.57;90.11
71177;DHT22;58877;51.992;4.504;2023-01-10T16:21:33;7.70;90.13
71177;DHT22;58877;51.992;4.504;2023-01-10T16:24:00;7.65;90.09
71177;DHT22;58877;51.992;4.504;2023-01-10T16:26:25;7.68;90.12
71177;DHT22;58877;51.992;4.504;2023-01-10T16:28:51;7.72;90.27
71177;DHT22;58877;51.992;4.504;2023-01-10T16:31:16;7.68;90.13
71177;DHT22;58877;51.992;4.504;2023-01-10T16:33:43;7.78;90.11
71177;DHT22;58877;51.992;4.504;2023-01-10T16:36:17;7.89;89.96
71177;DHT22;58877;51.992;4.504;2023-01-10T16:38:45;7.77;90.33
71177;DHT22;58877;51.992;4.504;2023-01-10T16:41:12;7.72;90.44
71177;DHT22;58877;51.992;4.504;2023-01-10T16:43:57;7.77;90.52
71177;DHT22;58877;51.992;4.504;2023-01-10T16:46:23;7.74;90.69
71177;DHT22;58877;51.992;4.504;2023-01-10T16:48:48;7.84;90.69
71177;DHT22;58877;51.992;4.504;2023-01-10T16:53:45;7.91;90.45
71177;DHT22;58877;51.992;4.504;2023-01-10T16:56:16;7.93;90.32
71177;DHT22;58877;51.992;4.504;2023-01-10T16:58:42;7.99;90.16
71177;DHT22;58877;51.992;4.504;2023-01-10T17:01:15;8.01;90.56
71177;DHT22;58877;51.992;4.504;2023-01-10T17:03:41;8.07;90.26
71177;DHT22;58877;51.992;4.504;2023-01-10T17:06:10;8.10;90.27
71177;DHT22;58877;51.992;4.504;2023-01-10T17:08:36;8.17;90.10
71177;DHT22;58877;51.992;4.504;2023-01-10T17:11:05;8.19;90.20
71177;DHT22;58877;51.992;4.504;2023-01-10T17:13:38;8.28;89.93
71177;DHT22;58877;51.992;4.504;2023-01-10T17:16:04;8.39;89.80
71177;DHT22;58877;51.992;4.504;2023-01-10T17:18:30;8.35;89.74
71177;DHT22;58877;51.992;4.504;2023-01-10T17:20:57;8.36;89.84
71177;DHT22;58877;51.992;4.504;2023-01-10T17:23:24;8.42;89.60
71177;DHT22;58877;51.992;4.504;2023-01-10T17:25:58;8.43;89.72
71177;DHT22;58877;51.992;4.504;2023-01-10T17:28:24;8.46;89.78
71177;DHT22;58877;51.992;4.504;2023-01-10T17:30:50;8.47;89.77
71177;DHT22;58877;51.992;4.504;2023-01-10T17:33:16;8.59;89.69
71177;DHT22;58877;51.992;4.504;2023-01-10T17:35:43;8.63;89.52
71177;DHT22;58877;51.992;4.504;2023-01-10T17:38:14;8.67;89.17
71177;DHT22;58877;51.992;4.504;2023-01-10T17:40:42;8.70;89.31
71177;DHT22;58877;51.992;4.504;2023-01-10T17:43:08;8.74;89.43
71177;DHT22;58877;51.992;4.504;2023-01-10T17:45:43;8.70;89.32
71177;DHT22;58877;51.992;4.504;2023-01-10T17:48:10;8.79;89.23
71177;DHT22;58877;51.992;4.504;2023-01-10T17:50:55;8.84;89.20
71177;DHT22;58877;51.992;4.504;2023-01-10T17:53:21;8.77;89.37
71177;DHT22;58877;51.992;4.504;2023-01-10T17:55:48;8.81;89.26
71177;DHT22;58877;51.992;4.504;2023-01-10T17:58:16;8.92;89.21
71177;DHT22;58877;51.992;4.504;2023-01-10T18:00:43;8.94;89.21
71177;DHT22;58877;51.992;4.504;2023-01-10T18:03:10;8.92;89.30
71177;DHT22;58877;51.992;4.504;2023-01-10T18:05:36;8.97;89.48
71177;DHT22;58877;51.992;4.504;2023-01-10T18:08:02;9.00;89.48
71177;DHT22;58877;51.992;4.504;2023-01-10T18:10:30;8.92;89.65